Time;durP1;ratioP1;P1;durP2;ratioP2;P2;SDS_P1;SDS_P2;PMS_P1;PMS_P2;Temp;Humidity;BMP_temperature;BMP_pressure;BME280_temperature;BME280_humidity;BME280_pressure;Samples;Min_cycle;Max_cycle;Signal;HPM_P1;HPM_P2
2022/05/15 00:00:41;;;;;;;9.30;2.40;;;8.80;69.10;;;;;;4157416;28;20061;-85
2022/05/15 00:02:41;;;;;;;11.73;2.72;;;8.70;69.20;;;;;;4160631;28;20029;-85
2022/05/15 00:04:42;;;;;;;11.90;2.60;;;8.70;69.40;;;;;;4140484;28;20045;-85
2022/05/15 00:06:43;;;;;;;16.77;2.88;;;8.80;69.80;;;;;;4154982;28;20034;-85
2022/05/15 00:08:45;;;;;;;9.70;2.30;;;8.80;69.80;;;;;;4147006;28;20022;-85
2022/05/15 00:10:46;;;;;;;19.10;3.20;;;8.70;70.00;;;;;;4143227;28;20047;-85
2022/05/15 00:12:47;;;;;;;13.85;2.83;;;8.80;70.30;;;;;;4158501;28;20485;-86
2022/05/15 00:14:48;;;;;;;18.63;3.28;;;8.80;70.50;;;;;;4155386;28;20038;-85
2022/05/15 00:16:49;;;;;;;19.00;3.13;;;8.70;70.50;;;;;;4155637;28;20037;-85
2022/05/15 00:18:50;;;;;;;15.80;3.53;;;8.60;70.70;;;;;;4166291;28;20401;-85
2022/05/15 00:20:52;;;;;;;18.00;3.55;;;8.60;70.50;;;;;;4149492;28;20826;-85
2022/05/15 00:22:55;;;;;;;13.82;3.03;;;8.60;70.70;;;;;;4149130;28;20046;-85
2022/05/15 00:24:58;;;;;;;14.77;2.97;;;8.70;71.00;;;;;;4146367;28;20037;-85
2022/05/15 00:26:58;;;;;;;17.75;2.60;;;8.70;71.10;;;;;;4148529;28;20026;-85
2022/05/15 00:28:59;;;;;;;18.20;2.92;;;8.70;71.30;;;;;;4144941;28;20061;-85
2022/05/15 00:31:02;;;;;;;17.90;3.33;;;8.60;71.30;;;;;;4144106;28;20036;-85
2022/05/15 00:33:04;;;;;;;18.98;4.10;;;8.60;71.40;;;;;;4156538;28;20425;-85
2022/05/15 00:35:05;;;;;;;12.80;2.80;;;8.60;71.50;;;;;;4137806;28;20090;-86
2022/05/15 00:37:06;;;;;;;20.85;3.05;;;8.60;71.70;;;;;;4157234;28;20107;-85
2022/05/15 00:39:07;;;;;;;20.17;3.05;;;8.60;71.80;;;;;;4157329;28;20041;-85
2022/05/15 00:41:11;;;;;;;11.20;3.15;;;8.60;71.80;;;;;;4146703;28;20033;-85
2022/05/15 00:43:40;;;;;;;11.05;2.78;;;8.70;72.00;;;;;;4154138;28;20041;-85
2022/05/15 00:45:43;;;;;;;12.15;2.75;;;8.60;72.10;;;;;;4147368;28;20508;-85
2022/05/15 00:47:46;;;;;;;12.15;2.42;;;8.60;71.80;;;;;;4158434;28;20029;-85
2022/05/15 00:49:47;;;;;;;18.88;3.30;;;8.70;71.70;;;;;;4148135;28;20036;-86
2022/05/15 00:52:04;;;;;;;12.38;2.65;;;8.70;71.70;;;;;;4172545;28;20029;-86
2022/05/15 00:54:43;;;;;;;18.50;3.53;;;8.60;71.80;;;;;;4175340;28;20032;-85
2022/05/15 00:56:53;;;;;;;9.68;2.55;;;8.50;72.10;;;;;;4168848;28;20146;-85
2022/05/15 00:59:02;;;;;;;11.15;3.28;;;8.60;71.60;;;;;;4145071;28;20030;-85
2022/05/15 01:01:04;;;;;;;15.57;2.75;;;8.50;71.50;;;;;;4161384;28;20037;-85
2022/05/15 01:03:07;;;;;;;14.50;3.08;;;8.50;71.50;;;;;;4159221;28;20055;-86
2022/05/15 01:05:13;;;;;;;9.02;3.13;;;8.50;71.50;;;;;;4156210;28;20025;-85
2022/05/15 01:07:15;;;;;;;17.63;3.30;;;8.50;71.60;;;;;;4145200;28;20014;-85
2022/05/15 01:09:16;;;;;;;10.02;2.80;;;8.50;71.60;;;;;;4155753;28;20029;-84
2022/05/15 01:11:22;;;;;;;10.40;2.63;;;8.50;71.60;;;;;;4147356;28;20742;-86
2022/05/15 01:13:25;;;;;;;10.63;2.78;;;8.40;71.40;;;;;;4144745;28;20784;-85
2022/05/15 01:15:28;;;;;;;14.80;3.20;;;8.50;71.50;;;;;;4143362;28;20030;-85
2022/05/15 01:17:28;;;;;;;20.45;3.13;;;8.40;71.50;;;;;;4139826;28;20030;-85
2022/05/15 01:19:35;;;;;;;13.05;3.03;;;8.40;71.40;;;;;;4153383;28;20050;-85
2022/05/15 01:21:52;;;;;;;15.50;3.75;;;8.40;71.30;;;;;;4171531;28;20021;-85
2022/05/15 01:23:52;;;;;;;19.85;3.42;;;8.40;71.40;;;;;;4153873;28;20046;-86
2022/05/15 01:25:53;;;;;;;12.52;3.35;;;8.40;71.40;;;;;;4140925;28;20106;-85
2022/05/15 01:28:02;;;;;;;16.58;2.83;;;8.30;71.20;;;;;;4146067;28;20130;-85
2022/05/15 01:30:05;;;;;;;17.10;2.80;;;8.30;71.30;;;;;;4142710;28;20605;-85
2022/05/15 01:32:06;;;;;;;12.32;2.85;;;8.30;71.20;;;;;;4140569;28;20034;-85
2022/05/15 01:34:09;;;;;;;8.75;2.60;;;8.30;71.20;;;;;;4158995;28;20033;-86
2022/05/15 01:36:10;;;;;;;16.08;3.10;;;8.30;71.20;;;;;;4147851;28;20029;-85
2022/05/15 01:38:11;;;;;;;13.75;2.67;;;8.20;71.10;;;;;;4144914;28;20386;-85
2022/05/15 01:40:12;;;;;;;13.05;2.40;;;8.20;71.20;;;;;;4143785;28;20093;-86
2022/05/15 01:42:13;;;;;;;11.52;2.75;;;8.20;72.10;;;;;;4156132;28;20144;-85
2022/05/15 01:44:14;;;;;;;12.48;2.47;;;8.20;71.40;;;;;;4142972;28;20077;-85
2022/05/15 01:46:15;;;;;;;13.23;3.08;;;8.20;71.50;;;;;;4162047;28;20045;-85
2022/05/15 01:48:18;;;;;;;10.57;2.92;;;8.20;71.50;;;;;;4144322;28;20033;-86
2022/05/15 01:50:25;;;;;;;12.88;3.13;;;8.20;71.50;;;;;;4144859;28;20033;-85
2022/05/15 01:52:26;;;;;;;16.17;3.13;;;8.00;71.20;;;;;;4157903;28;20029;-86
2022/05/15 01:54:27;;;;;;;11.13;3.08;;;8.00;70.90;;;;;;4157429;28;20045;-85
2022/05/15 01:56:28;;;;;;;13.30;2.80;;;8.10;70.70;;;;;;4141813;28;20076;-85
2022/05/15 01:58:29;;;;;;;16.30;3.22;;;8.00;70.40;;;;;;4137596;28;20504;-85
2022/05/15 02:00:32;;;;;;;7.57;2.65;;;7.90;70.30;;;;;;4158611;28;20037;-85
2022/05/15 02:02:32;;;;;;;8.82;2.45;;;7.90;70.30;;;;;;4157558;28;20818;-85
2022/05/15 02:04:34;;;;;;;7.35;2.55;;;7.80;70.20;;;;;;4137377;28;20429;-85
2022/05/15 02:06:36;;;;;;;13.07;2.33;;;7.80;70.10;;;;;;4154358;28;20030;-85
2022/05/15 02:08:37;;;;;;;13.35;2.80;;;7.80;70.10;;;;;;4137994;28;20026;-85
2022/05/15 02:10:38;;;;;;;10.43;2.53;;;7.80;70.10;;;;;;4174023;28;20144;-85
2022/05/15 02:12:39;;;;;;;9.85;2.20;;;7.70;70.00;;;;;;4144326;28;20034;-86
2022/05/15 02:14:40;;;;;;;8.82;2.22;;;7.80;70.10;;;;;;4144044;28;20034;-85
2022/05/15 02:16:40;;;;;;;10.40;2.60;;;7.60;69.90;;;;;;4146960;28;20092;-85
2022/05/15 02:18:41;;;;;;;6.10;2.22;;;7.60;69.70;;;;;;4158963;28;20030;-86
2022/05/15 02:20:42;;;;;;;9.40;2.15;;;7.60;69.50;;;;;;4160262;28;20073;-85
2022/05/15 02:22:42;;;;;;;13.10;2.88;;;7.50;69.40;;;;;;4143301;28;20026;-85
2022/05/15 02:24:43;;;;;;;10.52;2.47;;;7.60;69.50;;;;;;4145898;28;20073;-85
2022/05/15 02:26:44;;;;;;;8.35;2.72;;;7.50;69.60;;;;;;4145897;28;20029;-85
2022/05/15 02:28:44;;;;;;;4.93;1.77;;;7.50;69.70;;;;;;4143584;28;20033;-86
2022/05/15 02:30:48;;;;;;;12.77;2.58;;;7.40;69.60;;;;;;4136916;28;20521;-85
2022/05/15 02:32:49;;;;;;;22.20;3.70;;;7.30;69.50;;;;;;4141187;28;20504;-85
2022/05/15 02:34:50;;;;;;;27.70;3.90;;;7.30;69.40;;;;;;4140639;28;20110;-85
2022/05/15 02:36:53;;;;;;;17.80;4.43;;;7.30;69.60;;;;;;4155058;28;20196;-86
2022/05/15 02:38:54;;;;;;;18.88;4.15;;;7.30;69.60;;;;;;4141852;28;20083;-84
2022/05/15 02:40:55;;;;;;;14.80;3.58;;;7.30;69.50;;;;;;4147997;28;20036;-86
2022/05/15 02:42:56;;;;;;;11.27;3.45;;;7.20;69.60;;;;;;4146475;28;20034;-85
2022/05/15 02:44:57;;;;;;;14.50;3.65;;;7.30;69.80;;;;;;4143707;28;20424;-85
2022/05/15 02:46:57;;;;;;;8.18;3.03;;;7.20;69.90;;;;;;4145357;28;20022;-85
2022/05/15 02:51:17;;;;;;;7.38;2.38;;;7.20;70.30;;;;;;4179986;28;20108;-86
2022/05/15 02:53:18;;;;;;;7.68;2.88;;;7.10;70.40;;;;;;4142510;28;20489;-85
2022/05/15 02:55:19;;;;;;;6.45;2.47;;;7.20;70.60;;;;;;4143172;28;20097;-85
2022/05/15 02:57:19;;;;;;;6.60;2.40;;;7.10;70.60;;;;;;4145676;28;20033;-86
2022/05/15 02:59:20;;;;;;;14.52;3.13;;;7.10;70.70;;;;;;4150246;28;20037;-86
2022/05/15 03:01:21;;;;;;;18.75;4.10;;;7.10;70.70;;;;;;4144686;28;20128;-86
2022/05/15 03:03:25;;;;;;;12.32;3.45;;;7.00;70.40;;;;;;4145973;28;20049;-86
2022/05/15 03:05:25;;;;;;;14.07;3.17;;;7.00;70.10;;;;;;4140509;28;20030;-85
2022/05/15 03:07:26;;;;;;;14.18;3.65;;;7.00;70.00;;;;;;4146897;28;20058;-85
2022/05/15 03:09:27;;;;;;;14.45;3.20;;;7.00;70.00;;;;;;4148006;28;20504;-85
2022/05/15 03:11:27;;;;;;;12.90;3.22;;;6.90;69.90;;;;;;4160828;28;22071;-85
2022/05/15 03:13:28;;;;;;;16.85;3.75;;;7.00;70.00;;;;;;4148696;28;20045;-85
2022/05/15 03:15:31;;;;;;;12.00;3.50;;;6.90;70.00;;;;;;4154279;28;20065;-85
2022/05/15 03:17:34;;;;;;;11.45;3.70;;;6.80;70.00;;;;;;4160028;28;20500;-85
2022/05/15 03:19:35;;;;;;;8.87;3.00;;;6.90;70.00;;;;;;4145015;28;20361;-85
2022/05/15 03:21:35;;;;;;;11.00;3.42;;;6.80;70.10;;;;;;4143774;28;20292;-85
2022/05/15 03:23:37;;;;;;;9.82;3.95;;;6.80;70.10;;;;;;4147429;28;20088;-84
2022/05/15 03:25:38;;;;;;;11.25;3.42;;;6.80;70.10;;;;;;4142552;28;20038;-85
2022/05/15 03:27:38;;;;;;;8.82;3.70;;;6.80;70.20;;;;;;4144664;28;20516;-85
2022/05/15 03:29:39;;;;;;;10.57;3.47;;;6.80;70.30;;;;;;4145475;28;20029;-85
2022/05/15 03:31:40;;;;;;;10.70;3.35;;;6.70;70.30;;;;;;4146280;28;20037;-84
2022/05/15 03:33:41;;;;;;;10.93;3.20;;;6.80;70.40;;;;;;4143612;28;20038;-85
2022/05/15 03:35:42;;;;;;;11.45;2.97;;;6.70;70.50;;;;;;4141682;28;20030;-84
2022/05/15 03:37:43;;;;;;;14.13;3.33;;;6.70;70.50;;;;;;4155247;28;20051;-84
2022/05/15 03:39:43;;;;;;;8.48;3.08;;;6.80;70.60;;;;;;4137837;28;20038;-85
2022/05/15 03:41:44;;;;;;;9.27;3.03;;;6.70;70.50;;;;;;4143676;28;20437;-84
2022/05/15 03:43:45;;;;;;;11.93;3.00;;;6.70;70.60;;;;;;4144847;28;20125;-85
2022/05/15 03:45:45;;;;;;;7.75;3.17;;;6.70;70.60;;;;;;4145012;28;20448;-84
2022/05/15 03:47:47;;;;;;;13.07;3.03;;;6.60;70.60;;;;;;4138478;28;20104;-84
2022/05/15 03:49:48;;;;;;;13.30;3.72;;;6.70;70.60;;;;;;4145798;28;20030;-84
2022/05/15 03:51:49;;;;;;;11.35;3.00;;;6.70;70.70;;;;;;4162198;28;20022;-85
2022/05/15 03:53:50;;;;;;;9.15;3.13;;;6.60;70.70;;;;;;4148518;28;20038;-85
2022/05/15 03:55:55;;;;;;;16.40;3.97;;;6.60;70.80;;;;;;4142513;28;20113;-85
2022/05/15 03:57:56;;;;;;;16.17;3.58;;;6.60;70.80;;;;;;4146994;28;20029;-85
2022/05/15 03:59:57;;;;;;;13.00;3.72;;;6.70;70.90;;;;;;4149103;28;20027;-85
2022/05/15 04:02:03;;;;;;;17.02;4.15;;;6.70;71.00;;;;;;4163336;28;20033;-85
2022/05/15 04:04:04;;;;;;;14.95;3.80;;;6.70;71.10;;;;;;4156076;28;20030;-85
2022/05/15 04:06:04;;;;;;;16.20;4.50;;;6.70;71.30;;;;;;4145436;28;20029;-85
2022/05/15 04:08:05;;;;;;;15.65;4.63;;;6.70;71.40;;;;;;4157564;28;20073;-85
2022/05/15 04:10:06;;;;;;;14.60;4.47;;;6.70;71.70;;;;;;4144380;28;20663;-85
2022/05/15 04:12:09;;;;;;;17.70;4.80;;;6.70;71.80;;;;;;4160499;28;20059;-84
2022/05/15 04:14:09;;;;;;;18.75;4.60;;;6.80;72.00;;;;;;4141318;28;20139;-85
2022/05/15 04:16:11;;;;;;;15.27;4.13;;;6.80;72.20;;;;;;4148721;28;20026;-85
2022/05/15 04:18:12;;;;;;;11.65;4.30;;;6.80;72.30;;;;;;4163756;28;20057;-85
2022/05/15 04:20:15;;;;;;;8.95;3.20;;;6.80;72.60;;;;;;4146144;28;20061;-85
2022/05/15 04:22:15;;;;;;;11.30;3.55;;;6.90;72.80;;;;;;4148096;28;20531;-85
2022/05/15 04:24:17;;;;;;;25.05;4.68;;;7.00;73.10;;;;;;4147884;28;20038;-85
2022/05/15 04:26:18;;;;;;;14.40;4.50;;;7.00;73.20;;;;;;4145329;28;20035;-85
2022/05/15 04:28:18;;;;;;;19.70;4.35;;;7.00;73.30;;;;;;4147414;28;20032;-85
2022/05/15 04:30:23;;;;;;;12.32;4.03;;;7.00;73.50;;;;;;4144977;28;20101;-85
2022/05/15 04:32:23;;;;;;;14.75;4.45;;;7.10;73.60;;;;;;4160809;28;20054;-84
2022/05/15 04:34:26;;;;;;;12.85;4.43;;;7.10;73.80;;;;;;4169889;28;20289;-85
2022/05/15 04:36:26;;;;;;;14.93;4.60;;;7.20;74.00;;;;;;4152011;28;20038;-85
2022/05/15 04:38:28;;;;;;;19.55;5.07;;;7.30;74.20;;;;;;4161988;28;20084;-85
2022/05/15 04:40:28;;;;;;;23.35;5.18;;;7.30;74.30;;;;;;4144710;28;20398;-85
2022/05/15 04:42:31;;;;;;;26.40;6.00;;;7.30;74.60;;;;;;4139174;28;20108;-85
2022/05/15 04:44:32;;;;;;;21.52;5.90;;;7.50;75.10;;;;;;4129099;28;20205;-85
2022/05/15 04:46:33;;;;;;;21.38;6.00;;;7.60;75.60;;;;;;4158932;28;20064;-85
2022/05/15 04:48:35;;;;;;;18.17;4.57;;;7.60;75.90;;;;;;4145715;28;20462;-85
2022/05/15 04:50:39;;;;;;;15.88;5.75;;;7.70;76.20;;;;;;4175895;28;20119;-85
2022/05/15 04:52:39;;;;;;;24.70;5.45;;;7.70;76.70;;;;;;4147142;28;20034;-85
2022/05/15 04:54:43;;;;;;;24.52;5.65;;;7.90;77.30;;;;;;4146431;28;20152;-85
2022/05/15 04:56:44;;;;;;;24.10;5.20;;;7.90;77.40;;;;;;4153411;28;20096;-86
2022/05/15 04:58:46;;;;;;;37.90;6.45;;;8.00;77.50;;;;;;4163147;28;20171;-84
2022/05/15 05:00:48;;;;;;;24.02;5.50;;;8.10;78.10;;;;;;4156530;28;20021;-85
2022/05/15 05:02:49;;;;;;;27.80;5.93;;;8.10;78.60;;;;;;4162863;28;20033;-85
2022/05/15 05:04:50;;;;;;;28.30;5.97;;;8.20;78.60;;;;;;4146438;28;20422;-85
2022/05/15 05:06:51;;;;;;;26.33;6.32;;;8.20;78.60;;;;;;4130270;28;20026;-86
2022/05/15 05:08:52;;;;;;;23.25;5.72;;;8.30;78.50;;;;;;4147915;28;20064;-83
2022/05/15 05:10:53;;;;;;;22.85;5.82;;;8.30;78.60;;;;;;4174865;28;20036;-86
2022/05/15 05:12:56;;;;;;;27.65;5.93;;;8.40;78.70;;;;;;4148756;28;20034;-85
2022/05/15 05:14:58;;;;;;;;;;;8.40;79.00;;;;;;4159227;28;20029;-86
2022/05/15 05:16:58;;;;;;;27.00;6.30;;;8.50;79.40;;;;;;4146096;28;19936;-85
2022/05/15 05:19:00;;;;;;;20.42;5.90;;;8.50;79.00;;;;;;4126988;28;20030;-85
2022/05/15 05:21:01;;;;;;;19.48;6.00;;;8.70;79.20;;;;;;4141946;28;20043;-86
2022/05/15 05:23:01;;;;;;;23.67;6.47;;;8.70;79.10;;;;;;4143995;28;20040;-85
2022/05/15 05:25:02;;;;;;;25.98;5.78;;;8.70;79.30;;;;;;4143351;28;20041;-85
2022/05/15 05:27:03;;;;;;;34.92;6.28;;;8.70;79.30;;;;;;4145216;28;20058;-86
2022/05/15 05:29:04;;;;;;;20.08;5.82;;;8.70;79.40;;;;;;4142856;28;20033;-85
2022/05/15 05:31:05;;;;;;;24.58;5.30;;;8.80;79.50;;;;;;4144950;28;20036;-85
2022/05/15 05:33:11;;;;;;;;;;;8.90;79.70;;;;;;4145651;28;20025;-86
2022/05/15 05:35:15;;;;;;;24.20;5.90;;;8.90;79.90;;;;;;4140895;28;19932;-86
2022/05/15 05:37:17;;;;;;;28.77;6.03;;;8.90;79.10;;;;;;4157573;28;20041;-86
2022/05/15 05:39:18;;;;;;;22.33;5.93;;;9.00;79.40;;;;;;4140141;28;20484;-85
2022/05/15 05:41:21;;;;;;;28.75;5.80;;;9.00;79.40;;;;;;4156501;28;20026;-87
2022/05/15 05:43:22;;;;;;;23.88;6.03;;;9.10;79.70;;;;;;4145588;28;20054;-85
2022/05/15 05:45:22;;;;;;;30.85;6.40;;;9.10;79.70;;;;;;4143850;28;20486;-88
2022/05/15 05:47:27;;;;;;;28.40;5.70;;;9.10;79.70;;;;;;4156764;28;20036;-85
2022/05/15 05:49:33;;;;;;;26.08;5.65;;;9.10;79.60;;;;;;4143071;28;20104;-86
2022/05/15 05:51:34;;;;;;;29.85;5.47;;;9.20;79.70;;;;;;4158750;28;20030;-86
2022/05/15 05:53:34;;;;;;;28.95;5.70;;;9.20;79.70;;;;;;4139748;28;20027;-86
2022/05/15 05:55:36;;;;;;;29.20;5.38;;;9.20;79.60;;;;;;4139681;28;20033;-86
2022/05/15 05:57:38;;;;;;;26.33;6.13;;;9.30;79.50;;;;;;4141180;28;20026;-86
2022/05/15 05:59:39;;;;;;;33.83;6.10;;;9.40;79.60;;;;;;4142630;28;20029;-86
2022/05/15 06:01:42;;;;;;;27.65;5.43;;;9.30;79.60;;;;;;4137946;28;20613;-87
2022/05/15 06:06:02;;;;;;;22.88;5.53;;;9.40;79.50;;;;;;4143426;28;20025;-87
2022/05/15 06:08:04;;;;;;;24.25;5.45;;;9.50;79.60;;;;;;4156855;28;20041;-86
2022/05/15 06:10:07;;;;;;;23.67;5.72;;;9.50;80.20;;;;;;4141564;28;20038;-87
2022/05/15 06:12:10;;;;;;;27.65;5.20;;;9.50;79.30;;;;;;4143201;28;20029;-85
2022/05/15 06:14:10;;;;;;;26.67;5.65;;;9.50;79.20;;;;;;4142520;28;20037;-86
2022/05/15 06:16:13;;;;;;;29.90;5.95;;;9.70;79.60;;;;;;4158183;28;20045;-86
2022/05/15 06:18:13;;;;;;;25.08;5.43;;;9.80;79.10;;;;;;4142098;28;20392;-86
2022/05/15 06:20:14;;;;;;;16.52;4.95;;;9.80;79.10;;;;;;4154745;28;20052;-87
2022/05/15 06:22:15;;;;;;;24.88;4.93;;;9.80;79.00;;;;;;4140354;28;20104;-87
2022/05/15 06:24:16;;;;;;;27.40;5.93;;;9.90;79.10;;;;;;4141403;28;20041;-86
2022/05/15 06:26:17;;;;;;;26.42;4.97;;;9.90;79.10;;;;;;4142701;28;20648;-87
2022/05/15 06:28:21;;;;;;;25.95;5.68;;;10.00;79.20;;;;;;4144802;28;20069;-86
2022/05/15 06:30:21;;;;;;;19.02;4.72;;;10.00;79.30;;;;;;4141501;28;20183;-86
2022/05/15 06:32:22;;;;;;;24.85;5.70;;;10.10;79.20;;;;;;4152828;28;20059;-88
2022/05/15 06:34:22;;;;;;;24.02;5.05;;;10.30;79.30;;;;;;4143905;28;20044;-86
2022/05/15 06:36:23;;;;;;;27.60;5.70;;;10.30;79.20;;;;;;4144490;28;20030;-86
2022/05/15 06:38:24;;;;;;;23.25;5.80;;;10.40;79.70;;;;;;4137781;28;20744;-87
2022/05/15 06:40:25;;;;;;;31.48;5.55;;;10.40;78.70;;;;;;4158303;28;20121;-86
2022/05/15 06:42:29;;;;;;;18.67;4.90;;;10.40;78.60;;;;;;4141782;28;20038;-86
2022/05/15 06:44:30;;;;;;;27.13;5.32;;;10.60;78.40;;;;;;4139617;28;20125;-86
2022/05/15 06:46:31;;;;;;;28.38;4.90;;;10.60;78.40;;;;;;4160283;28;20509;-86
2022/05/15 06:48:35;;;;;;;22.65;4.85;;;10.70;78.10;;;;;;4141113;28;20030;-87
2022/05/15 06:50:37;;;;;;;27.38;5.28;;;10.80;78.00;;;;;;4154499;28;20542;-87
2022/05/15 06:52:43;;;;;;;27.30;4.80;;;10.80;78.00;;;;;;4145466;28;20382;-87
2022/05/15 06:54:44;;;;;;;28.38;4.85;;;10.80;77.60;;;;;;4152146;28;20124;-87
2022/05/15 06:59:09;;;;;;;15.35;4.38;;;11.00;76.90;;;;;;4136417;28;20128;-88
2022/05/15 07:01:10;;;;;;;20.33;5.30;;;11.00;76.40;;;;;;4154875;28;20026;-89
2022/05/15 07:03:11;;;;;;;19.52;4.43;;;11.00;76.20;;;;;;4152158;28;20080;-87
2022/05/15 07:05:13;;;;;;;24.58;4.60;;;11.10;76.40;;;;;;4146714;28;20033;-88
2022/05/15 07:07:14;;;;;;;20.15;4.45;;;11.20;76.70;;;;;;4142363;28;20026;-86
2022/05/15 07:09:15;;;;;;;30.40;6.78;;;11.30;76.60;;;;;;4139980;28;20030;-88
2022/05/15 07:11:16;;;;;;;19.15;4.97;;;11.50;76.20;;;;;;4147292;28;20044;-88
2022/05/15 07:13:17;;;;;;;20.33;4.35;;;11.50;75.70;;;;;;4141589;28;20470;-88
2022/05/15 07:15:18;;;;;;;25.20;4.35;;;11.60;75.20;;;;;;4156540;28;20067;-88
2022/05/15 07:17:19;;;;;;;18.35;4.43;;;11.60;74.90;;;;;;4145416;28;20501;-87
2022/05/15 07:19:20;;;;;;;19.23;4.47;;;11.70;74.50;;;;;;4127707;28;20162;-87
2022/05/15 07:21:20;;;;;;;21.02;4.72;;;11.70;74.40;;;;;;4142612;28;20037;-87
2022/05/15 07:23:22;;;;;;;21.80;4.63;;;11.80;74.00;;;;;;4141969;28;20030;-86
2022/05/15 07:25:22;;;;;;;22.33;4.15;;;11.80;73.30;;;;;;4143063;28;20026;-87
2022/05/15 07:27:23;;;;;;;19.42;4.07;;;12.00;73.20;;;;;;4158090;28;21428;-87
2022/05/15 07:29:24;;;;;;;20.58;4.10;;;12.00;72.80;;;;;;4143029;28;20101;-88
2022/05/15 07:31:25;;;;;;;24.25;4.40;;;12.00;72.70;;;;;;4156153;28;20038;-87
2022/05/15 07:33:28;;;;;;;21.30;4.05;;;12.20;72.60;;;;;;4138209;28;20112;-88
2022/05/15 07:35:29;;;;;;;19.15;3.83;;;12.20;72.20;;;;;;4140058;28;20140;-88
2022/05/15 07:37:30;;;;;;;15.88;3.72;;;12.20;72.10;;;;;;4162827;28;20026;-88
2022/05/15 07:39:31;;;;;;;19.58;4.20;;;12.30;72.30;;;;;;4146848;28;20061;-88
2022/05/15 07:41:34;;;;;;;15.27;3.70;;;12.40;72.10;;;;;;4142454;28;20026;-88
2022/05/15 07:43:35;;;;;;;24.20;4.03;;;12.50;71.90;;;;;;4154117;28;20680;-88
2022/05/15 07:45:37;;;;;;;26.10;4.65;;;12.60;71.40;;;;;;4140465;28;20030;-88
2022/05/15 07:47:38;;;;;;;16.58;3.67;;;12.70;70.90;;;;;;4154228;28;20033;-88
2022/05/15 07:49:40;;;;;;;15.75;3.97;;;12.80;70.30;;;;;;4156833;28;20107;-88
2022/05/15 07:51:44;;;;;;;20.98;4.50;;;12.90;69.90;;;;;;4138761;28;20551;-87
2022/05/15 07:53:45;;;;;;;17.75;3.75;;;12.90;69.60;;;;;;4136283;28;20559;-89
2022/05/15 07:55:46;;;;;;;16.77;3.92;;;13.00;69.40;;;;;;4142300;28;20034;-88
2022/05/15 07:57:46;;;;;;;17.45;4.18;;;13.10;69.20;;;;;;4159469;28;20564;-88
2022/05/15 07:59:47;;;;;;;13.60;3.17;;;13.10;68.90;;;;;;4128597;28;20125;-88
2022/05/15 08:01:48;;;;;;;20.10;3.90;;;13.20;68.10;;;;;;4141086;28;20085;-88
2022/05/15 08:03:49;;;;;;;16.27;3.40;;;13.30;68.00;;;;;;4142893;28;20102;-88
2022/05/15 08:08:11;;;;;;;23.65;3.47;;;13.50;67.20;;;;;;4142864;28;20030;-88
2022/05/15 08:10:12;;;;;;;17.85;3.17;;;13.60;66.90;;;;;;4140246;28;20025;-89
2022/05/15 08:12:13;;;;;;;21.10;3.53;;;13.60;66.50;;;;;;4145295;28;20158;-89
2022/05/15 08:14:14;;;;;;;15.70;4.00;;;13.70;66.10;;;;;;4145102;28;20124;-89
2022/05/15 08:16:15;;;;;;;17.95;3.58;;;13.80;66.00;;;;;;4153399;28;20461;-89
2022/05/15 08:25:54;;;;;;;16.77;3.45;;;14.20;64.70;;;;;;4142529;28;20034;-87
2022/05/15 08:28:15;;;;;;;14.23;2.88;;;14.20;64.30;;;;;;4151491;28;20125;-88
2022/05/15 08:30:36;;;;;;;16.90;3.58;;;14.30;64.10;;;;;;4152057;28;20044;-88
2022/05/15 08:32:38;;;;;;;11.07;3.13;;;14.40;64.10;;;;;;4142366;28;20064;-87
2022/05/15 08:35:02;;;;;;;16.90;3.67;;;14.40;64.00;;;;;;4147129;28;20042;-89
2022/05/15 08:37:23;;;;;;;18.13;3.45;;;14.50;63.90;;;;;;4159373;28;20036;-88
2022/05/15 08:39:44;;;;;;;19.25;3.80;;;14.60;63.90;;;;;;4161536;28;20041;-90
2022/05/15 08:42:22;;;;;;;24.77;4.38;;;14.70;63.70;;;;;;4174565;28;20028;-89
2022/05/15 08:44:43;;;;;;;17.83;3.50;;;14.80;62.60;;;;;;4145306;28;20038;-87
2022/05/15 08:47:31;;;;;;;14.23;3.03;;;14.90;62.40;;;;;;4139020;28;20084;-88
2022/05/15 08:50:04;;;;;;;11.93;2.90;;;15.00;61.40;;;;;;4141875;28;20027;-88
2022/05/15 08:53:05;;;;;;;21.55;3.70;;;15.10;60.80;;;;;;4141635;28;20517;-89
2022/05/15 08:55:38;;;;;;;14.13;3.42;;;15.20;60.30;;;;;;4148165;28;20092;-88
2022/05/15 08:58:06;;;;;;;11.90;2.90;;;15.30;60.80;;;;;;4147667;28;20038;-88
2022/05/15 09:00:33;;;;;;;20.42;3.88;;;15.30;59.90;;;;;;4153403;28;20036;-90
2022/05/15 09:03:23;;;;;;;16.17;3.30;;;15.40;59.70;;;;;;4141288;28;20034;-89
2022/05/15 09:05:57;;;;;;;12.57;3.03;;;15.50;59.40;;;;;;4148571;28;20060;-89
2022/05/15 09:08:54;;;;;;;13.70;3.40;;;15.60;59.50;;;;;;4140157;28;20128;-89
2022/05/15 09:11:30;;;;;;;16.27;2.97;;;15.70;59.00;;;;;;4157931;28;20041;-90
2022/05/15 09:13:41;;;;;;;15.43;3.92;;;15.80;59.40;;;;;;4168858;28;20066;-86
2022/05/15 09:15:57;;;;;;;15.73;3.58;;;15.90;59.10;;;;;;4161002;28;20056;-88
2022/05/15 09:18:04;;;;;;;14.95;3.13;;;15.90;58.00;;;;;;4145093;28;20055;-88
2022/05/15 09:20:10;;;;;;;15.07;3.50;;;16.00;58.00;;;;;;4143550;28;20014;-88
2022/05/15 09:22:13;;;;;;;16.95;3.35;;;16.00;57.80;;;;;;4147035;28;20009;-86
2022/05/15 09:24:36;;;;;;;11.80;2.70;;;16.10;57.50;;;;;;4143812;28;20037;-89
2022/05/15 09:26:44;;;;;;;16.27;2.97;;;16.20;56.10;;;;;;4142767;28;20493;-88
2022/05/15 09:28:51;;;;;;;18.85;3.13;;;16.20;57.50;;;;;;4143354;28;20034;-88
2022/05/15 09:30:52;;;;;;;12.73;2.58;;;16.30;57.60;;;;;;4144038;28;20029;-87
2022/05/15 09:32:56;;;;;;;9.95;2.67;;;16.40;57.30;;;;;;4146082;28;20105;-88
2022/05/15 09:35:01;;;;;;;15.82;3.00;;;16.40;57.20;;;;;;4153764;28;20068;-87
2022/05/15 09:39:41;;;;;;;11.35;2.47;;;16.60;56.90;;;;;;4143671;28;20075;-89
2022/05/15 09:44:37;;;;;;;18.95;4.65;;;16.80;54.20;;;;;;4143378;28;20033;-87
2022/05/15 09:46:40;;;;;;;15.48;4.43;;;16.90;53.70;;;;;;4139486;28;20088;-87
2022/05/15 09:48:56;;;;;;;15.00;3.53;;;16.90;54.10;;;;;;4157172;28;20509;-89
2022/05/15 09:51:00;;;;;;;12.02;2.88;;;17.00;53.20;;;;;;4141561;28;20040;-87
2022/05/15 09:53:06;;;;;;;10.07;2.80;;;17.10;52.50;;;;;;4144663;28;20083;-87
2022/05/15 09:55:15;;;;;;;15.98;3.30;;;17.10;52.00;;;;;;4141478;28;20030;-87
2022/05/15 09:57:22;;;;;;;12.23;2.88;;;17.20;51.40;;;;;;4151413;28;20570;-88
2022/05/15 09:59:27;;;;;;;14.30;2.65;;;17.20;50.30;;;;;;4147319;28;20029;-88
2022/05/15 10:01:40;;;;;;;11.10;2.85;;;17.20;50.70;;;;;;4145202;28;20038;-87
2022/05/15 10:03:41;;;;;;;8.88;2.08;;;17.30;51.40;;;;;;4161368;28;20025;-87
2022/05/15 10:05:42;;;;;;;13.27;2.42;;;17.30;52.00;;;;;;4136508;28;20041;-85
2022/05/15 10:08:02;;;;;;;11.48;2.20;;;17.40;52.60;;;;;;4130899;28;20120;-87
2022/05/15 10:10:16;;;;;;;8.18;2.30;;;17.40;52.50;;;;;;4149616;28;20148;-86
2022/05/15 10:12:28;;;;;;;;;;;17.60;52.50;;;;;;4134218;28;20030;-87
2022/05/15 10:14:53;;;;;;;9.00;2.28;;;17.70;50.70;;;;;;4133164;28;19921;-87
2022/05/15 10:16:58;;;;;;;11.10;3.17;;;17.80;51.70;;;;;;4162138;28;20576;-87
2022/05/15 10:19:24;;;;;;;10.88;2.08;;;18.00;51.30;;;;;;4137647;28;20026;-88
2022/05/15 10:21:58;;;;;;;9.45;2.20;;;18.00;49.20;;;;;;4149761;28;20136;-85
2022/05/15 10:24:05;;;;;;;6.72;2.00;;;18.10;50.40;;;;;;4136206;28;20041;-86
2022/05/15 10:26:10;;;;;;;9.10;2.15;;;18.30;51.10;;;;;;4136972;28;20064;-88
2022/05/15 10:28:39;;;;;;;9.25;2.30;;;18.30;50.70;;;;;;4152095;28;20064;-86
2022/05/15 10:31:06;;;;;;;11.00;2.35;;;18.40;49.70;;;;;;4152101;28;20045;-88
2022/05/15 10:33:18;;;;;;;10.95;2.70;;;18.60;48.80;;;;;;4135852;28;20033;-86
2022/05/15 10:35:41;;;;;;;12.18;2.42;;;18.70;47.70;;;;;;4138449;28;20109;-87
2022/05/15 10:38:21;;;;;;;13.25;2.63;;;18.80;48.20;;;;;;4152460;28;20090;-87
2022/05/15 10:40:43;;;;;;;14.43;2.47;;;18.90;48.90;;;;;;4132732;28;20030;-88
2022/05/15 10:43:13;;;;;;;11.10;3.00;;;18.90;46.80;;;;;;4136431;28;20038;-88
2022/05/15 10:45:32;;;;;;;15.15;3.28;;;19.00;48.50;;;;;;4135807;28;20112;-85
2022/05/15 10:47:52;;;;;;;11.70;2.88;;;19.10;49.20;;;;;;4135168;28;20034;-86
2022/05/15 10:50:18;;;;;;;11.35;2.40;;;19.10;47.80;;;;;;4148714;28;20552;-86
2022/05/15 10:52:33;;;;;;;10.25;2.65;;;19.00;47.80;;;;;;4156291;28;20070;-87
2022/05/15 10:57:28;;;;;;;16.92;3.05;;;19.00;47.60;;;;;;4150192;28;20057;-89
2022/05/15 10:59:46;;;;;;;11.73;2.72;;;18.80;47.00;;;;;;4153468;28;20813;-87
2022/05/15 11:02:01;;;;;;;11.65;2.45;;;18.80;47.70;;;;;;4137476;28;20034;-88
2022/05/15 11:04:44;;;;;;;17.13;3.03;;;18.60;47.70;;;;;;4158110;28;20108;-86
2022/05/15 11:07:28;;;;;;;11.68;2.58;;;18.50;48.20;;;;;;4137354;28;20038;-86
2022/05/15 11:10:21;;;;;;;684.08;35.58;;;18.40;48.10;;;;;;4141669;28;20094;-86
2022/05/15 11:13:11;;;;;;;14.43;3.07;;;18.20;47.70;;;;;;4119399;28;20812;-87
2022/05/15 11:16:09;;;;;;;13.63;2.53;;;18.10;48.30;;;;;;4147293;28;20038;-87
2022/05/15 11:18:55;;;;;;;10.15;2.65;;;18.00;48.60;;;;;;4132699;28;20088;-88
2022/05/15 11:21:35;;;;;;;12.30;2.75;;;17.90;47.70;;;;;;4142929;28;20038;-88